Dilolo Airport


Codes: FZSI/
Name: Dilolo Airport
City: Dilolo
Country: Congo [DRC]
Elevation: 3378 ft.

Photos at Dilolo Airport


   Photos courtesy of SpottingLog. You can add your own sightings and photos by signing up for a free trial today.



No photos found.

Weather at Dilolo Airport


Time (UTC)DescriptionTempratureWindCloud coverageVisibilityPressureHumidity
13-Jun-2024 03:00Scattered Clouds12°C4 mph, S31%10000m1020hPa57%
13-Jun-2024 06:00Scattered Clouds13°C4 mph, SE28%10000m1020hPa54%
13-Jun-2024 09:00Few Clouds22°C7 mph, SE15%10000m1019hPa37%
13-Jun-2024 12:00Clear Sky30°C7 mph, SE6%10000m1014hPa22%
13-Jun-2024 15:00Broken Clouds29°C4 mph, SE68%10000m1012hPa23%
13-Jun-2024 18:00Broken Clouds20°C4 mph, S75%10000m1015hPa38%
13-Jun-2024 21:00Broken Clouds17°C7 mph, S79%10000m1017hPa43%
14-Jun-2024 00:00Scattered Clouds14°C4 mph, SE49%10000m1017hPa49%
14-Jun-2024 03:00Broken Clouds13°C4 mph, S58%10000m1018hPa51%
14-Jun-2024 06:00Scattered Clouds16°C4 mph, SE43%10000m1020hPa45%
14-Jun-2024 09:00Clear Sky27°C7 mph, SE4%10000m1018hPa23%
14-Jun-2024 12:00Clear Sky31°C4 mph, S4%10000m1013hPa18%
14-Jun-2024 15:00Clear Sky29°C4 mph, S1%10000m1012hPa18%
14-Jun-2024 18:00Clear Sky20°C4 mph, S0%10000m1015hPa30%
14-Jun-2024 21:00Clear Sky16°C7 mph, S0%10000m1017hPa33%
15-Jun-2024 00:00Clear Sky14°C4 mph, SE0%10000m1016hPa38%
15-Jun-2024 03:00Clear Sky12°C4 mph, SE0%10000m1016hPa42%
15-Jun-2024 06:00Clear Sky15°C4 mph, SE0%10000m1018hPa35%
15-Jun-2024 09:00Clear Sky27°C9 mph, SE0%10000m1016hPa17%
15-Jun-2024 12:00Clear Sky31°C7 mph, SE0%10000m1011hPa12%
15-Jun-2024 15:00Clear Sky30°C4 mph, SE0%10000m1010hPa13%
15-Jun-2024 18:00Clear Sky19°C4 mph, SE0%10000m1014hPa25%
15-Jun-2024 21:00Clear Sky16°C4 mph, SE0%10000m1016hPa32%
16-Jun-2024 00:00Clear Sky14°C4 mph, SE0%10000m1015hPa37%
16-Jun-2024 03:00Clear Sky12°C4 mph, SE0%10000m1016hPa40%
16-Jun-2024 06:00Clear Sky15°C4 mph, SE0%10000m1017hPa35%
16-Jun-2024 09:00Clear Sky27°C7 mph, E0%10000m1015hPa17%
16-Jun-2024 12:00Clear Sky31°C4 mph, SE0%10000m1011hPa13%
16-Jun-2024 15:00Clear Sky30°C2 mph, SE0%10000m1010hPa15%
16-Jun-2024 18:00Clear Sky19°C2 mph, SE0%10000m1014hPa27%
16-Jun-2024 21:00Clear Sky16°C4 mph, SE0%10000m1015hPa31%
17-Jun-2024 00:00Clear Sky14°C4 mph, SE0%10000m1015hPa37%
17-Jun-2024 03:00Clear Sky13°C4 mph, SE1%10000m1016hPa46%
17-Jun-2024 06:00Clear Sky16°C4 mph, SE1%10000m1018hPa41%
17-Jun-2024 09:00Clear Sky28°C4 mph, E2%10000m1015hPa22%
17-Jun-2024 12:00Clear Sky33°C2 mph, E4%10000m1011hPa14%
17-Jun-2024 15:00Clear Sky30°C2 mph, E5%10000m1010hPa15%
17-Jun-2024 18:00Clear Sky20°C2 mph, SE5%10000m1014hPa29%
17-Jun-2024 21:00Clear Sky17°C4 mph, S2%10000m1015hPa34%
18-Jun-2024 00:00Clear Sky15°C4 mph, SE1%10000m1015hPa38%